Rexmere, Louisiana
Current Conditions -  °F | °C
As of 1:53 PM on Saturday 25 Oct 2014 (Local Time) from KESF Reporting Station
Clear Clear  
Wind Chill: 80°   Ceiling: Unl
Heat Index: 80°   Visibility: 10mi
Dew Point: 55°   Wind: 5mph
Humidity: 42%   Direction: NA
Pressure: 30.12"   Gusts: NA
Location:  31.0386°N, 91.9871°W
Report Text: KESF 251853Z AUTO VRB04KT 10SM CLR 27/13 A3012 RMK AO2 SLP199 T02670128
Loading
Personal Weather Stations






























Interactive Weather Map
Tropical Storm Tracking
New forecast layout! Learn more

10-Day Weather Forecast

Advertisements
Track Severe Weather on mobile